createdAt,value
2015-07-10T00:00:01.481Z,13.1
2015-07-10T00:00:19.856Z,13.1
2015-07-10T00:00:38.231Z,13
2015-07-10T00:00:56.624Z,13.1
2015-07-10T00:01:14.999Z,13.1
2015-07-10T00:01:33.390Z,13.1
2015-07-10T00:01:51.766Z,13
2015-07-10T00:02:10.157Z,13
2015-07-10T00:02:28.532Z,13
2015-07-10T00:02:46.910Z,13
2015-07-10T00:03:05.300Z,12.9
2015-07-10T00:03:23.707Z,12.9
2015-07-10T00:03:42.097Z,12.9
2015-07-10T00:04:00.473Z,12.9
2015-07-10T00:04:18.848Z,12.9
2015-07-10T00:04:37.239Z,12.9
2015-07-10T00:04:55.616Z,13
2015-07-10T00:05:14.022Z,12.9
2015-07-10T00:05:32.413Z,12.9
2015-07-10T00:05:50.790Z,12.9
2015-07-10T00:06:09.165Z,12.8
2015-07-10T00:06:27.555Z,12.9
2015-07-10T00:06:45.949Z,12.9
2015-07-10T00:07:04.324Z,12.8
2015-07-10T00:07:22.699Z,12.9
2015-07-10T00:07:41.105Z,12.9
2015-07-10T00:07:59.512Z,12.8
2015-07-10T00:08:17.903Z,12.8
2015-07-10T00:08:36.294Z,12.7
2015-07-10T00:08:54.030Z,12.8
2015-07-10T00:09:12.421Z,12.8
2015-07-10T00:09:30.811Z,12.9
2015-07-10T00:09:49.204Z,12.9
2015-07-10T00:10:07.595Z,13
2015-07-10T00:10:25.985Z,13
2015-07-10T00:10:44.360Z,13
2015-07-10T00:11:02.736Z,13
2015-07-10T00:11:21.127Z,12.9
2015-07-10T00:11:39.517Z,12.9
2015-07-10T00:11:57.927Z,12.9
2015-07-10T00:12:16.317Z,12.9
2015-07-10T00:12:34.677Z,13
2015-07-10T00:12:53.054Z,13
2015-07-10T00:13:11.429Z,13
2015-07-10T00:13:29.819Z,13
2015-07-10T00:13:48.212Z,13.1
2015-07-10T00:14:06.587Z,13.1
2015-07-10T00:14:24.978Z,13
2015-07-10T00:14:43.368Z,13
2015-07-10T00:15:01.761Z,13
2015-07-10T00:15:20.151Z,12.9
2015-07-10T00:15:38.526Z,12.9
2015-07-10T00:15:56.888Z,12.9
2015-07-10T00:16:15.278Z,12.8
2015-07-10T00:16:33.653Z,12.8
2015-07-10T00:16:52.046Z,12.8
2015-07-10T00:17:10.421Z,12.7
2015-07-10T00:17:28.796Z,12.7
2015-07-10T00:17:47.187Z,12.7
2015-07-10T00:18:05.563Z,12.7
2015-07-10T00:18:24.078Z,12.8
2015-07-10T00:18:42.594Z,12.8
2015-07-10T00:19:01.065Z,12.8
2015-07-10T00:19:19.565Z,12.9
2015-07-10T00:19:37.971Z,12.8
2015-07-10T00:19:56.395Z,12.8
2015-07-10T00:20:14.785Z,12.8
2015-07-10T00:20:33.223Z,12.8
2015-07-10T00:20:51.709Z,12.7
2015-07-10T00:21:10.334Z,12.7
2015-07-10T00:21:28.741Z,12.7
2015-07-10T00:21:47.319Z,12.8
2015-07-10T00:22:05.852Z,12.8
2015-07-10T00:22:24.289Z,12.8
2015-07-10T00:22:42.758Z,12.8
2015-07-10T00:23:01.198Z,12.7
2015-07-10T00:23:19.651Z,12.7
2015-07-10T00:23:38.463Z,12.7
2015-07-10T00:23:57.247Z,12.6
2015-07-10T00:24:15.700Z,12.6
2015-07-10T00:24:33.543Z,12.6
2015-07-10T00:24:51.983Z,12.5
2015-07-10T00:25:10.358Z,12.5
2015-07-10T00:25:28.905Z,12.6
2015-07-10T00:25:47.342Z,12.6
2015-07-10T00:26:05.876Z,12.6
2015-07-10T00:26:24.329Z,12.6
2015-07-10T00:26:42.735Z,12.6
2015-07-10T00:27:01.221Z,12.6
2015-07-10T00:27:19.596Z,12.5
2015-07-10T00:27:38.049Z,12.5
2015-07-10T00:27:56.583Z,12.5
2015-07-10T00:28:15.067Z,12.6
2015-07-10T00:28:33.661Z,12.6
2015-07-10T00:28:52.132Z,12.5
2015-07-10T00:29:10.600Z,12.5
2015-07-10T00:29:29.210Z,12.6
2015-07-10T00:29:47.772Z,12.6
2015-07-10T00:30:06.446Z,12.6
2015-07-10T00:30:25.118Z,12.5
2015-07-10T00:30:43.680Z,12.5
2015-07-10T00:31:02.056Z,12.4
2015-07-10T00:31:20.541Z,12.4
2015-07-10T00:31:39.150Z,12.3
2015-07-10T00:31:57.574Z,12.4
2015-07-10T00:32:15.449Z,12.3
2015-07-10T00:32:33.855Z,12.4
2015-07-10T00:32:52.483Z,12.3
2015-07-10T00:33:10.999Z,12.4
2015-07-10T00:33:29.155Z,12.4
2015-07-10T00:33:47.624Z,12.4
2015-07-10T00:34:06.047Z,12.4
2015-07-10T00:34:24.609Z,12.4
2015-07-10T00:34:43.047Z,12.4
2015-07-10T00:35:01.518Z,12.4
2015-07-10T00:35:19.971Z,12.4
2015-07-10T00:35:38.502Z,12.4
2015-07-10T00:35:57.004Z,12.4
2015-07-10T00:36:15.582Z,12.3
2015-07-10T00:36:34.035Z,12.3
2015-07-10T00:36:52.966Z,12.3
2015-07-10T00:37:10.857Z,12.3
2015-07-10T00:37:29.247Z,12.3
2015-07-10T00:37:47.872Z,12.3
2015-07-10T00:38:06.312Z,12.3
2015-07-10T00:38:24.780Z,12.3
2015-07-10T00:38:43.796Z,12.2
2015-07-10T00:39:01.814Z,12.2
2015-07-10T00:39:20.548Z,12.3
2015-07-10T00:39:39.517Z,12.3
2015-07-10T00:39:57.956Z,12.4
2015-07-10T00:40:16.347Z,12.4
2015-07-10T00:40:34.894Z,12.4
2015-07-10T00:40:53.284Z,12.4
2015-07-10T00:41:11.661Z,12.3
2015-07-10T00:41:30.052Z,12.3
2015-07-10T00:41:48.536Z,12.3
2015-07-10T00:42:07.054Z,12.3
2015-07-10T00:42:25.710Z,12.4
2015-07-10T00:42:44.148Z,12.4
2015-07-10T00:43:02.681Z,12.4
2015-07-10T00:43:21.228Z,12.4
2015-07-10T00:43:39.681Z,12.4
2015-07-10T00:43:58.247Z,12.3
2015-07-10T00:44:16.997Z,12.3
2015-07-10T00:44:35.616Z,12.3
2015-07-10T00:44:54.334Z,12.3
2015-07-10T00:45:12.789Z,12.3
2015-07-10T00:45:31.210Z,12.3
2015-07-10T00:45:49.695Z,12.3
2015-07-10T00:46:08.167Z,12.4
2015-07-10T00:46:26.635Z,12.4
2015-07-10T00:46:45.151Z,12.3
2015-07-10T00:47:03.871Z,12.3
2015-07-10T00:47:22.355Z,12.4
2015-07-10T00:47:40.855Z,12.3
2015-07-10T00:47:59.263Z,12.3
2015-07-10T00:48:17.638Z,12.3
2015-07-10T00:48:36.466Z,12.3
2015-07-10T00:48:54.888Z,12.3
2015-07-10T00:49:13.422Z,12.3
2015-07-10T00:49:31.906Z,12.3
2015-07-10T00:49:50.312Z,12.3
2015-07-10T00:50:08.814Z,12.3
2015-07-10T00:50:27.283Z,12.3
2015-07-10T00:50:45.720Z,12.3
2015-07-10T00:51:04.199Z,12.3
2015-07-10T00:51:22.699Z,12.4
2015-07-10T00:51:41.090Z,12.4
2015-07-10T00:51:59.482Z,12.5
2015-07-10T00:52:18.154Z,12.5
2015-07-10T00:52:36.607Z,12.4
2015-07-10T00:52:55.217Z,12.4
2015-07-10T00:53:13.578Z,12.4
2015-07-10T00:53:31.969Z,12.4
2015-07-10T00:53:50.344Z,12.5
2015-07-10T00:54:08.877Z,12.4
2015-07-10T00:54:27.455Z,12.4
2015-07-10T00:54:46.017Z,12.3
2015-07-10T00:55:04.487Z,12.3
2015-07-10T00:55:23.112Z,12.3
2015-07-10T00:55:41.550Z,12.3
2015-07-10T00:56:00.020Z,12.3
2015-07-10T00:56:18.661Z,12.3
2015-07-10T00:56:37.099Z,12.3
2015-07-10T00:56:55.520Z,12.3
2015-07-10T00:57:14.179Z,12.3
2015-07-10T00:57:32.679Z,12.3
2015-07-10T00:57:51.054Z,12.2
2015-07-10T00:58:09.635Z,12.1
2015-07-10T00:58:28.057Z,12.1
2015-07-10T00:58:46.729Z,12.1
2015-07-10T00:59:05.199Z,12.1
2015-07-10T00:59:23.684Z,12.2
2015-07-10T00:59:42.074Z,12.2
2015-07-10T01:00:00.498Z,12.2
2015-07-10T01:00:18.920Z,12.3
2015-07-10T01:00:37.467Z,12.3
2015-07-10T01:00:55.873Z,12.4
2015-07-10T01:01:14.515Z,12.4
2015-07-10T01:01:33.062Z,12.5
2015-07-10T01:01:51.437Z,12.5
2015-07-10T01:02:09.814Z,12.5
2015-07-10T01:02:28.314Z,12.5
2015-07-10T01:02:46.720Z,12.4
2015-07-10T01:03:05.113Z,12.4
2015-07-10T01:03:23.675Z,12.4
2015-07-10T01:03:42.128Z,12.4
2015-07-10T01:04:00.521Z,12.3
2015-07-10T01:04:19.021Z,12.3
2015-07-10T01:04:37.443Z,12.3
2015-07-10T01:04:55.802Z,12.2
2015-07-10T01:05:14.320Z,12.1
2015-07-10T01:05:32.773Z,12.1
2015-07-10T01:05:51.210Z,12.1
2015-07-10T01:06:09.619Z,12
2015-07-10T01:06:27.353Z,12
2015-07-10T01:06:45.806Z,12
2015-07-10T01:07:04.277Z,12
2015-07-10T01:07:22.730Z,12
2015-07-10T01:07:41.105Z,11.9
2015-07-10T01:07:59.669Z,11.9
2015-07-10T01:08:18.060Z,11.9
2015-07-10T01:08:36.466Z,11.9
2015-07-10T01:08:54.904Z,12
2015-07-10T01:09:13.281Z,12
2015-07-10T01:09:31.671Z,12
2015-07-10T01:09:50.093Z,11.9
2015-07-10T01:10:08.486Z,11.8
2015-07-10T01:10:27.048Z,11.8
2015-07-10T01:10:45.470Z,11.9
2015-07-10T01:11:03.909Z,11.9
2015-07-10T01:11:22.518Z,11.9
2015-07-10T01:11:40.909Z,11.9
2015-07-10T01:11:59.299Z,11.9
2015-07-10T01:12:17.708Z,11.9
2015-07-10T01:12:36.114Z,12
2015-07-10T01:12:54.505Z,12
2015-07-10T01:13:12.961Z,12.1
2015-07-10T01:13:31.367Z,12.1
2015-07-10T01:13:49.742Z,12.1
2015-07-10T01:14:08.243Z,12.1
2015-07-10T01:14:26.634Z,12.2
2015-07-10T01:14:44.993Z,12.2
2015-07-10T01:15:03.433Z,12.2
2015-07-10T01:15:21.871Z,12.2
2015-07-10T01:15:40.512Z,12.2
2015-07-10T01:15:59.058Z,12.3
2015-07-10T01:16:17.481Z,12.3
2015-07-10T01:16:35.981Z,12.4
2015-07-10T01:16:54.497Z,12.3
2015-07-10T01:17:13.015Z,12.2
2015-07-10T01:17:31.421Z,12.2
2015-07-10T01:17:50.124Z,12.2
2015-07-10T01:18:08.626Z,12.1
2015-07-10T01:18:27.298Z,12.1
2015-07-10T01:18:45.673Z,12
2015-07-10T01:19:04.050Z,12
2015-07-10T01:19:21.800Z,12
2015-07-10T01:19:40.284Z,12
2015-07-10T01:19:58.753Z,12
2015-07-10T01:20:17.192Z,12.1
2015-07-10T01:20:35.583Z,12.1
2015-07-10T01:20:54.130Z,12.2
2015-07-10T01:21:12.601Z,12.2
2015-07-10T01:21:30.991Z,12.2
2015-07-10T01:21:49.429Z,12.2
2015-07-10T01:22:07.337Z,12.2
2015-07-10T01:22:25.884Z,12.3
2015-07-10T01:22:44.603Z,12.2
2015-07-10T01:23:03.073Z,12.1
2015-07-10T01:23:21.652Z,12.1
2015-07-10T01:23:40.277Z,12.1
2015-07-10T01:23:58.683Z,12.1
2015-07-10T01:24:17.138Z,12.1
2015-07-10T01:24:35.575Z,12
2015-07-10T01:24:54.747Z,12
2015-07-10T01:25:13.468Z,12
2015-07-10T01:25:31.890Z,11.9
2015-07-10T01:25:50.312Z,11.8
2015-07-10T01:26:08.829Z,11.8
2015-07-10T01:26:27.220Z,11.8
2015-07-10T01:26:45.595Z,11.8
2015-07-10T01:27:03.987Z,11.8
2015-07-10T01:27:22.534Z,11.8
2015-07-10T01:27:40.940Z,11.8
2015-07-10T01:27:59.659Z,11.9
2015-07-10T01:28:18.129Z,11.9
2015-07-10T01:28:36.504Z,11.9
2015-07-10T01:28:55.051Z,11.9
2015-07-10T01:29:13.496Z,11.9
2015-07-10T01:29:31.871Z,11.8
2015-07-10T01:29:50.262Z,11.7
2015-07-10T01:30:08.915Z,11.6
2015-07-10T01:30:27.399Z,11.6
2015-07-10T01:30:45.884Z,11.6
2015-07-10T01:31:04.334Z,11.6
2015-07-10T01:31:22.881Z,11.6
2015-07-10T01:31:41.365Z,11.6
2015-07-10T01:31:59.850Z,11.6
2015-07-10T01:32:18.316Z,11.7
2015-07-10T01:32:36.816Z,11.7
2015-07-10T01:32:55.206Z,11.6
2015-07-10T01:33:13.672Z,11.6
2015-07-10T01:33:32.360Z,11.6
2015-07-10T01:33:50.844Z,11.7
2015-07-10T01:34:09.328Z,11.7
2015-07-10T01:34:27.781Z,11.7
2015-07-10T01:34:46.375Z,11.7
2015-07-10T01:35:04.861Z,11.6
2015-07-10T01:35:23.392Z,11.6
2015-07-10T01:35:41.861Z,11.6
2015-07-10T01:36:00.220Z,11.6
2015-07-10T01:36:18.738Z,11.7
2015-07-10T01:36:37.410Z,11.6
2015-07-10T01:36:56.066Z,11.7
2015-07-10T01:37:14.553Z,11.7
2015-07-10T01:37:33.084Z,11.8
2015-07-10T01:37:51.569Z,11.8
2015-07-10T01:38:09.975Z,11.7
2015-07-10T01:38:28.366Z,11.8
2015-07-10T01:38:46.991Z,11.8
2015-07-10T01:39:05.613Z,11.8
2015-07-10T01:39:23.988Z,11.9
2015-07-10T01:39:42.473Z,11.9
2015-07-10T01:40:00.894Z,12
2015-07-10T01:40:19.276Z,11.9
2015-07-10T01:40:37.683Z,11.9
2015-07-10T01:40:56.214Z,11.9
2015-07-10T01:41:14.753Z,11.9
2015-07-10T01:41:33.425Z,11.9
2015-07-10T01:41:51.972Z,11.9
2015-07-10T01:42:10.385Z,11.9
2015-07-10T01:42:28.776Z,11.9
2015-07-10T01:42:47.166Z,11.9
2015-07-10T01:43:05.580Z,11.8
2015-07-10T01:43:24.173Z,11.9
2015-07-10T01:43:42.611Z,11.8
2015-07-10T01:44:01.158Z,11.9
2015-07-10T01:44:19.617Z,12
2015-07-10T01:44:38.008Z,11.9
2015-07-10T01:44:56.539Z,11.9
2015-07-10T01:45:14.949Z,11.9
2015-07-10T01:45:33.308Z,11.9
2015-07-10T01:45:51.762Z,11.9
2015-07-10T01:46:10.141Z,11.9
2015-07-10T01:46:28.656Z,11.9
2015-07-10T01:46:47.141Z,11.9
2015-07-10T01:47:05.550Z,11.8
2015-07-10T01:47:24.128Z,11.8
2015-07-10T01:47:42.690Z,11.8
2015-07-10T01:48:01.284Z,11.8
2015-07-10T01:48:19.663Z,11.7
2015-07-10T01:48:38.054Z,11.7
2015-07-10T01:48:56.710Z,11.6
2015-07-10T01:49:15.447Z,11.7
2015-07-10T01:49:34.166Z,11.6
2015-07-10T01:49:52.807Z,11.5
2015-07-10T01:50:11.264Z,11.5
2015-07-10T01:50:29.717Z,11.5
2015-07-10T01:50:48.264Z,11.5
2015-07-10T01:51:06.641Z,11.5
2015-07-10T01:51:25.063Z,11.5
2015-07-10T01:51:43.469Z,11.5
2015-07-10T01:52:01.860Z,11.5
2015-07-10T01:52:20.441Z,11.6
2015-07-10T01:52:39.003Z,11.6
2015-07-10T01:52:57.488Z,11.6
2015-07-10T01:53:15.974Z,11.6
2015-07-10T01:53:34.599Z,11.6
2015-07-10T01:53:53.083Z,11.6
2015-07-10T01:54:11.680Z,11.6
2015-07-10T01:54:30.102Z,11.7
2015-07-10T01:54:48.649Z,11.7
2015-07-10T01:55:07.276Z,11.7
2015-07-10T01:55:25.870Z,11.6
2015-07-10T01:55:44.385Z,11.6
2015-07-10T01:56:02.870Z,11.6
2015-07-10T01:56:21.607Z,11.5
2015-07-10T01:56:40.107Z,11.5
2015-07-10T01:56:58.513Z,11.6
2015-07-10T01:57:16.968Z,11.6
2015-07-10T01:57:35.453Z,11.6
2015-07-10T01:57:53.953Z,11.6
2015-07-10T01:58:12.533Z,11.7
2015-07-10T01:58:31.111Z,11.7
2015-07-10T01:58:49.517Z,11.7
2015-07-10T01:59:07.958Z,11.7
2015-07-10T01:59:26.317Z,11.7
2015-07-10T01:59:44.692Z,11.7
2015-07-10T02:00:03.208Z,11.7
2015-07-10T02:00:21.615Z,11.8
2015-07-10T02:00:40.115Z,11.7
2015-07-10T02:00:58.553Z,11.7
2015-07-10T02:01:17.023Z,11.6
2015-07-10T02:01:35.492Z,11.5
2015-07-10T02:01:53.883Z,11.5
2015-07-10T02:02:12.416Z,11.5
2015-07-10T02:02:30.807Z,11.4
2015-07-10T02:02:49.416Z,11.4
2015-07-10T02:03:07.917Z,11.4
2015-07-10T02:03:26.464Z,11.3
2015-07-10T02:03:44.901Z,11.3
2015-07-10T02:04:03.339Z,11.3
2015-07-10T02:04:21.888Z,11.3
2015-07-10T02:04:40.310Z,11.2
2015-07-10T02:04:58.700Z,11.3
2015-07-10T02:05:17.109Z,11.3
2015-07-10T02:05:35.500Z,11.3
2015-07-10T02:05:53.984Z,11.3
2015-07-10T02:06:12.377Z,11.3
2015-07-10T02:06:30.768Z,11.3
2015-07-10T02:06:49.190Z,11.4
2015-07-10T02:07:07.582Z,11.4
2015-07-10T02:07:26.051Z,11.4
2015-07-10T02:07:44.442Z,11.4
2015-07-10T02:08:03.051Z,11.4
2015-07-10T02:08:21.553Z,11.4
2015-07-10T02:08:40.194Z,11.4
2015-07-10T02:08:58.584Z,11.5
2015-07-10T02:09:17.195Z,11.4
2015-07-10T02:09:35.679Z,11.5
2015-07-10T02:09:55.101Z,11.5
2015-07-10T02:10:13.525Z,11.5
2015-07-10T02:10:32.259Z,11.5
2015-07-10T02:10:50.634Z,11.6
2015-07-10T02:11:09.043Z,11.6
2015-07-10T02:11:27.575Z,11.5
2015-07-10T02:11:46.184Z,11.5
2015-07-10T02:12:04.543Z,11.5
2015-07-10T02:12:23.233Z,11.5
2015-07-10T02:12:41.577Z,11.5
2015-07-10T02:12:59.983Z,11.5
2015-07-10T02:13:18.391Z,11.4
2015-07-10T02:13:36.782Z,11.4
2015-07-10T02:13:55.188Z,11.4
2015-07-10T02:14:13.626Z,11.3
2015-07-10T02:14:32.048Z,11.3
2015-07-10T02:14:50.548Z,11.4
2015-07-10T02:15:09.050Z,11.4
2015-07-10T02:15:27.457Z,11.4
2015-07-10T02:15:45.878Z,11.4
2015-07-10T02:16:04.269Z,11.4
2015-07-10T02:16:22.693Z,11.4
2015-07-10T02:16:41.177Z,11.4
2015-07-10T02:16:59.709Z,11.5
2015-07-10T02:17:18.069Z,11.5
2015-07-10T02:17:36.585Z,11.5
2015-07-10T02:17:54.960Z,11.5
2015-07-10T02:18:13.447Z,11.4
2015-07-10T02:18:31.838Z,11.4
2015-07-10T02:18:50.291Z,11.4
2015-07-10T02:19:08.668Z,11.3
2015-07-10T02:19:27.230Z,11.3
2015-07-10T02:19:45.730Z,11.3
2015-07-10T02:20:04.152Z,11.2
2015-07-10T02:20:22.607Z,11.2
2015-07-10T02:20:41.029Z,11.2
2015-07-10T02:20:59.388Z,11.1
2015-07-10T02:21:17.874Z,11.1
2015-07-10T02:21:36.421Z,11.1
2015-07-10T02:21:54.827Z,11.1
2015-07-10T02:22:13.189Z,11
2015-07-10T02:22:31.611Z,11
2015-07-10T02:22:50.064Z,11
2015-07-10T02:23:08.533Z,11
2015-07-10T02:23:26.909Z,11
2015-07-10T02:23:45.550Z,11
2015-07-10T02:24:03.972Z,11.1
2015-07-10T02:24:22.427Z,11
2015-07-10T02:24:40.958Z,11
2015-07-10T02:24:59.411Z,11.1
2015-07-10T02:25:17.991Z,11.1
2015-07-10T02:25:36.444Z,11.1
2015-07-10T02:25:54.851Z,11.1
2015-07-10T02:26:13.384Z,11.1
2015-07-10T02:26:31.790Z,11.1
2015-07-10T02:26:50.228Z,11.1
2015-07-10T02:27:08.618Z,11.1
2015-07-10T02:27:27.183Z,11.1
2015-07-10T02:27:45.558Z,11.1
2015-07-10T02:28:04.011Z,11.1
2015-07-10T02:28:22.435Z,11.1
2015-07-10T02:28:40.982Z,11.1
2015-07-10T02:28:59.372Z,11.2
2015-07-10T02:29:17.984Z,11.2
2015-07-10T02:29:36.515Z,11.2
2015-07-10T02:29:54.937Z,11.2
2015-07-10T02:30:13.298Z,11.2
2015-07-10T02:30:31.923Z,11.2
2015-07-10T02:30:50.298Z,11.2
2015-07-10T02:31:08.720Z,11.3
2015-07-10T02:31:27.113Z,11.2
2015-07-10T02:31:45.534Z,11.2
2015-07-10T02:32:03.909Z,11.1
2015-07-10T02:32:22.427Z,11.1
2015-07-10T02:32:40.990Z,11.1
2015-07-10T02:32:59.365Z,11.1
2015-07-10T02:33:17.834Z,11.2
2015-07-10T02:33:36.537Z,11.2
2015-07-10T02:33:55.147Z,11.3
2015-07-10T02:34:13.603Z,11.3
2015-07-10T02:34:32.087Z,11.4
2015-07-10T02:34:50.619Z,11.4
2015-07-10T02:35:09.181Z,11.4
2015-07-10T02:35:27.542Z,11.4
2015-07-10T02:35:45.917Z,11.4
2015-07-10T02:36:04.339Z,11.4
2015-07-10T02:36:23.043Z,11.4
2015-07-10T02:36:41.481Z,11.4
2015-07-10T02:36:59.965Z,11.4
2015-07-10T02:37:18.405Z,11.4
2015-07-10T02:37:36.952Z,11.5
2015-07-10T02:37:55.374Z,11.5
2015-07-10T02:38:13.782Z,11.4
2015-07-10T02:38:32.407Z,11.4
2015-07-10T02:38:50.907Z,11.4
2015-07-10T02:39:09.438Z,11.5
2015-07-10T02:39:27.924Z,11.5
2015-07-10T02:39:46.378Z,11.4
2015-07-10T02:40:04.987Z,11.4
2015-07-10T02:40:23.505Z,11.5
2015-07-10T02:40:41.911Z,11.5
2015-07-10T02:41:00.598Z,11.4
2015-07-10T02:41:18.975Z,11.3
2015-07-10T02:41:37.522Z,11.3
2015-07-10T02:41:55.897Z,11.3
2015-07-10T02:42:14.587Z,11.3
2015-07-10T02:42:33.071Z,11.2
2015-07-10T02:42:51.446Z,11.2
2015-07-10T02:43:09.915Z,11.2
2015-07-10T02:43:28.464Z,11.2
2015-07-10T02:43:47.214Z,11.3
2015-07-10T02:44:05.682Z,11.3
2015-07-10T02:44:24.075Z,11.3
2015-07-10T02:44:42.481Z,11.3
2015-07-10T02:45:00.888Z,11.4
2015-07-10T02:45:19.310Z,11.4
2015-07-10T02:45:37.670Z,11.4
2015-07-10T02:45:56.139Z,11.4
2015-07-10T02:46:14.607Z,11.3
2015-07-10T02:46:33.156Z,11.4
2015-07-10T02:46:51.766Z,11.4
2015-07-10T02:47:10.219Z,11.4
2015-07-10T02:47:28.612Z,11.5
2015-07-10T02:47:47.253Z,11.5
2015-07-10T02:48:05.769Z,11.6
2015-07-10T02:48:24.505Z,11.6
2015-07-10T02:48:42.880Z,11.6
2015-07-10T02:49:01.364Z,11.6
2015-07-10T02:49:19.803Z,11.6
2015-07-10T02:49:38.178Z,11.6
2015-07-10T02:49:56.647Z,11.6
2015-07-10T02:50:15.100Z,11.6
2015-07-10T02:50:33.555Z,11.6
2015-07-10T02:50:51.930Z,11.7
2015-07-10T02:51:10.524Z,11.7
2015-07-10T02:51:29.119Z,11.6
2015-07-10T02:51:47.635Z,11.6
2015-07-10T02:52:06.088Z,11.6
2015-07-10T02:52:24.559Z,11.6
2015-07-10T02:52:43.199Z,11.5
2015-07-10T02:53:01.574Z,11.5
2015-07-10T02:53:19.951Z,11.4
2015-07-10T02:53:38.420Z,11.4
2015-07-10T02:53:56.795Z,11.4
2015-07-10T02:54:15.420Z,11.4
2015-07-10T02:54:33.969Z,11.3
2015-07-10T02:54:53.766Z,11.3
2015-07-10T02:55:12.266Z,11.3
2015-07-10T02:55:30.752Z,11.3
2015-07-10T02:55:49.127Z,11.3
2015-07-10T02:56:07.534Z,11.3
2015-07-10T02:56:26.036Z,11.3
2015-07-10T02:56:44.411Z,11.2
2015-07-10T02:57:02.973Z,11.1
2015-07-10T02:57:21.412Z,11.1
2015-07-10T02:57:39.833Z,11.1
2015-07-10T02:57:58.333Z,11.1
2015-07-10T02:58:16.802Z,11.1
2015-07-10T02:58:35.227Z,11.1
2015-07-10T02:58:53.727Z,11.1
2015-07-10T02:59:12.243Z,11
2015-07-10T02:59:30.917Z,11
2015-07-10T02:59:49.276Z,11
2015-07-10T03:00:07.682Z,11
2015-07-10T03:00:26.136Z,11.1
2015-07-10T03:00:44.496Z,11.1
2015-07-10T03:01:03.152Z,11.2
2015-07-10T03:01:21.592Z,11.2
2015-07-10T03:01:39.967Z,11.2
2015-07-10T03:01:58.655Z,11.2
2015-07-10T03:02:17.046Z,11.3
2015-07-10T03:02:35.407Z,11.4
2015-07-10T03:02:53.798Z,11.4
2015-07-10T03:03:12.376Z,11.4
2015-07-10T03:03:30.752Z,11.4
2015-07-10T03:03:49.377Z,11.4
2015-07-10T03:04:07.752Z,11.4
2015-07-10T03:04:26.129Z,11.5
2015-07-10T03:04:44.519Z,11.5
2015-07-10T03:05:03.222Z,11.5
2015-07-10T03:05:21.724Z,11.5
2015-07-10T03:05:40.287Z,11.5
2015-07-10T03:05:58.724Z,11.6
2015-07-10T03:06:17.209Z,11.6
2015-07-10T03:06:35.789Z,11.6
2015-07-10T03:06:54.367Z,11.7
2015-07-10T03:07:13.273Z,11.6
2015-07-10T03:07:31.728Z,11.6
2015-07-10T03:07:50.135Z,11.4
2015-07-10T03:08:08.525Z,11.4
2015-07-10T03:08:27.121Z,11.4
2015-07-10T03:08:45.527Z,11.3
2015-07-10T03:09:04.137Z,11.3
2015-07-10T03:09:22.701Z,11.3
2015-07-10T03:09:41.092Z,11.3
2015-07-10T03:09:59.701Z,11.3
2015-07-10T03:10:18.076Z,11.2
2015-07-10T03:10:36.641Z,11.2
2015-07-10T03:10:55.078Z,11.3
2015-07-10T03:11:13.516Z,11.3
2015-07-10T03:11:31.955Z,11.3
2015-07-10T03:11:50.393Z,11.3
2015-07-10T03:12:08.752Z,11.2
2015-07-10T03:12:27.612Z,11.2
2015-07-10T03:12:45.972Z,11.2
2015-07-10T03:13:04.503Z,11.2
2015-07-10T03:13:23.037Z,11.2
2015-07-10T03:13:41.490Z,11.2
2015-07-10T03:13:59.865Z,11.2
2015-07-10T03:14:18.740Z,11.2
2015-07-10T03:14:37.414Z,11.2
2015-07-10T03:14:55.836Z,11.1
2015-07-10T03:15:14.227Z,11
2015-07-10T03:15:32.650Z,10.9
2015-07-10T03:15:50.368Z,10.9
2015-07-10T03:16:08.759Z,10.9
2015-07-10T03:16:26.792Z,10.8
2015-07-10T03:16:45.370Z,10.8
2015-07-10T03:17:03.761Z,10.8
2015-07-10T03:17:22.544Z,10.9
2015-07-10T03:17:41.201Z,10.9
2015-07-10T03:17:59.747Z,10.9
2015-07-10T03:18:18.263Z,11
2015-07-10T03:18:36.812Z,11
2015-07-10T03:18:55.296Z,11
2015-07-10T03:19:14.015Z,11
2015-07-10T03:19:32.439Z,11
2015-07-10T03:19:50.861Z,11
2015-07-10T03:20:09.564Z,11.1
2015-07-10T03:20:28.066Z,11.1
2015-07-10T03:20:46.597Z,11.1
2015-07-10T03:21:05.113Z,11
2015-07-10T03:21:23.568Z,11
2015-07-10T03:21:42.037Z,10.9
2015-07-10T03:22:00.693Z,11
2015-07-10T03:22:19.146Z,11
2015-07-10T03:22:37.586Z,11
2015-07-10T03:22:55.976Z,11
2015-07-10T03:23:14.398Z,11
2015-07-10T03:23:33.056Z,11
2015-07-10T03:23:51.541Z,11
2015-07-10T03:24:09.916Z,11
2015-07-10T03:24:28.792Z,11.1
2015-07-10T03:24:47.292Z,11.1
2015-07-10T03:25:05.948Z,11
2015-07-10T03:25:24.638Z,11
2015-07-10T03:25:43.013Z,11
2015-07-10T03:26:01.623Z,11
2015-07-10T03:26:20.201Z,11
2015-07-10T03:26:38.672Z,11
2015-07-10T03:26:57.328Z,11
2015-07-10T03:27:15.828Z,11
2015-07-10T03:27:34.548Z,11
2015-07-10T03:27:53.188Z,10.9
2015-07-10T03:28:11.735Z,10.9
2015-07-10T03:28:30.159Z,10.9
2015-07-10T03:28:48.518Z,10.9
2015-07-10T03:29:07.081Z,10.9
2015-07-10T03:29:25.630Z,10.9
2015-07-10T03:29:43.989Z,10.8
2015-07-10T03:30:02.489Z,10.8
2015-07-10T03:30:20.958Z,10.8
2015-07-10T03:30:39.414Z,10.8
2015-07-10T03:30:57.820Z,10.8
2015-07-10T03:31:16.320Z,10.8
2015-07-10T03:31:34.697Z,10.8
2015-07-10T03:31:53.275Z,10.8
2015-07-10T03:32:11.791Z,10.8
2015-07-10T03:32:30.370Z,10.8
2015-07-10T03:32:48.886Z,10.9
2015-07-10T03:33:07.370Z,10.9
2015-07-10T03:33:25.747Z,10.9
2015-07-10T03:33:44.388Z,10.8
2015-07-10T03:34:02.794Z,10.9
2015-07-10T03:34:21.232Z,10.9
2015-07-10T03:34:40.046Z,10.9
2015-07-10T03:34:58.421Z,10.9
2015-07-10T03:35:16.905Z,11
2015-07-10T03:35:35.298Z,11
2015-07-10T03:35:53.986Z,11
2015-07-10T03:36:12.361Z,11
2015-07-10T03:36:30.894Z,10.9
2015-07-10T03:36:49.316Z,10.9
2015-07-10T03:37:07.722Z,10.9
2015-07-10T03:37:26.286Z,10.9
2015-07-10T03:37:44.943Z,10.9
2015-07-10T03:38:03.474Z,10.8
2015-07-10T03:38:22.130Z,10.8
2015-07-10T03:38:40.507Z,10.8
2015-07-10T03:38:58.882Z,10.8
2015-07-10T03:39:17.398Z,10.8
2015-07-10T03:39:35.165Z,10.8
2015-07-10T03:39:54.087Z,10.8
2015-07-10T03:40:12.697Z,10.8
2015-07-10T03:40:31.167Z,10.8
2015-07-10T03:40:49.589Z,10.8
2015-07-10T03:41:08.058Z,10.9
2015-07-10T03:41:26.513Z,10.9
2015-07-10T03:41:44.998Z,10.9
2015-07-10T03:42:03.669Z,10.9
2015-07-10T03:42:22.248Z,11
2015-07-10T03:42:40.186Z,11
2015-07-10T03:42:58.670Z,11.1
2015-07-10T03:43:17.155Z,11
2015-07-10T03:43:35.641Z,11
2015-07-10T03:43:54.110Z,11
2015-07-10T03:44:12.532Z,11
2015-07-10T03:44:30.893Z,11.1
2015-07-10T03:44:49.378Z,11.1
2015-07-10T03:45:07.831Z,11
2015-07-10T03:45:26.755Z,11
2015-07-10T03:45:45.255Z,11
2015-07-10T03:46:03.661Z,11
2015-07-10T03:46:22.192Z,11
2015-07-10T03:46:40.647Z,11
2015-07-10T03:46:59.210Z,11.1
2015-07-10T03:47:17.616Z,11.1
2015-07-10T03:47:36.040Z,11.1
2015-07-10T03:47:54.587Z,11.2
2015-07-10T03:48:12.977Z,11.1
2015-07-10T03:48:31.417Z,11.1
2015-07-10T03:48:49.792Z,11.1
2015-07-10T03:49:08.198Z,11.1
2015-07-10T03:49:26.575Z,11.1
2015-07-10T03:49:44.934Z,11.2
2015-07-10T03:50:03.309Z,11.2
2015-07-10T03:50:21.778Z,11.1
2015-07-10T03:50:40.155Z,11.1
2015-07-10T03:50:58.561Z,11.1
2015-07-10T03:51:17.171Z,11
2015-07-10T03:51:34.970Z,10.9
2015-07-10T03:51:53.360Z,10.9
2015-07-10T03:52:11.720Z,11
2015-07-10T03:52:30.189Z,10.9
2015-07-10T03:52:48.689Z,10.9
2015-07-10T03:53:07.221Z,10.9
2015-07-10T03:53:25.724Z,10.9
2015-07-10T03:53:44.317Z,11
2015-07-10T03:54:02.802Z,11
2015-07-10T03:54:21.177Z,11
2015-07-10T03:54:39.819Z,11.1
2015-07-10T03:54:58.398Z,11.1
2015-07-10T03:55:16.960Z,11.1
2015-07-10T03:55:35.446Z,11.1
2015-07-10T03:55:54.181Z,11.1
2015-07-10T03:56:12.618Z,11.2
2015-07-10T03:56:31.135Z,11.2
2015-07-10T03:56:49.604Z,11.1
2015-07-10T03:57:08.229Z,11.1
2015-07-10T03:57:26.621Z,11.1
2015-07-10T03:57:45.059Z,11
2015-07-10T03:58:03.465Z,11.1
2015-07-10T03:58:21.871Z,11.1
2015-07-10T03:58:40.248Z,11.1
2015-07-10T03:58:58.608Z,11.2
2015-07-10T03:59:17.170Z,11.1
2015-07-10T03:59:35.625Z,11.1
2015-07-10T03:59:53.985Z,11.1
2015-07-10T04:00:12.578Z,11.1
2015-07-10T04:00:30.987Z,11.1
2015-07-10T04:00:49.643Z,11.2
2015-07-10T04:01:08.127Z,11.2
2015-07-10T04:01:25.971Z,11.2
2015-07-10T04:01:44.348Z,11.2
2015-07-10T04:02:02.707Z,11.2
2015-07-10T04:02:21.176Z,11.3
2015-07-10T04:02:39.584Z,11.3
2015-07-10T04:02:58.163Z,11.4
2015-07-10T04:03:16.569Z,11.4
2015-07-10T04:03:34.930Z,11.3
2015-07-10T04:03:53.571Z,11.3
2015-07-10T04:04:11.946Z,11.3
2015-07-10T04:04:30.338Z,11.2
2015-07-10T04:04:48.917Z,11.1
2015-07-10T04:05:07.479Z,11.2
2015-07-10T04:05:25.917Z,11.2
2015-07-10T04:05:44.434Z,11.2
2015-07-10T04:06:02.872Z,11.2
2015-07-10T04:06:21.231Z,11.2
2015-07-10T04:06:39.702Z,11.3
2015-07-10T04:06:58.077Z,11.3
2015-07-10T04:07:16.483Z,11.3
2015-07-10T04:07:34.954Z,11.3